Список аэропортов
Фактическая погода:

24 мая, 15:55
Температура: +20°C (+19.9*)
Ветер: сев.-западный 6 м/с
Давление: *768 мм
Без существ. явл.
Время (МСК)Темп. СВетерВлажностьДавлениеОблачностьОсадки
15:00+18СЗ, 6 м/с60%1024 гПаоблачно
16:00+19СЗ, 6 м/с56%1024 гПаоблачно
17:00+20СЗ, 6 м/с58%1024 гПаоблачно
18:00+19СЗ, 6 м/с62%1024 гПас прояснениями
19:00+18СЗ, 6 м/с66%1024 гПас прояснениями
20:00+18СЗ, 6 м/с67%1024 гПаоблачно
21:00+17СЗ, 6 м/с69%1024 гПаоблачно
22:00+16С, 5 м/с74%1024 гПаоблачно
23:00+14СЗ, 4 м/с83%1024 гПаоблачно
25 мая
00:00+14СЗ, 3 м/с89%1025 гПаоблачно
01:00+13СЗ, 3 м/с91%1025 гПаоблачно
02:00+12СЗ, 2 м/с96%1025 гПамалооблачно
03:00+12СЗ, 2 м/с98%1025 гПас прояснениями
04:00+11СЗ, 3 м/с98%1025 гПас прояснениями
05:00+11СЗ, 2 м/с99%1025 гПас прояснениями
06:00+10СЗ, 2 м/с100%1025 гПаоблачно
07:00+10СЗ, 2 м/с100%1025 гПаоблачно
08:00+11С, 1 м/с99%1025 гПаоблачно
09:00+13С, 2 м/с86%1026 гПаясно
10:00+15С, 3 м/с70%1026 гПаясно
11:00+17С, 2 м/с64%1026 гПаясно
12:00+18СВ, 2 м/с59%1026 гПаясно
13:00+20СВ, 2 м/с55%1026 гПаясно
14:00+21СВ, 2 м/с52%1026 гПаясно
15:00+22СВ, 3 м/с51%1025 гПаясно
16:00+22СВ, 3 м/с50%1025 гПаясно
17:00+23СВ, 4 м/с49%1025 гПаясно
18:00+23СВ, 4 м/с48%1024 гПаясно
19:00+23СВ, 5 м/с48%1024 гПаясно
20:00+22СВ, 5 м/с50%1024 гПаясно
21:00+21СВ, 5 м/с54%1024 гПаясно
22:00+20СВ, 4 м/с56%1023 гПаясно
23:00+19СВ, 4 м/с62%1023 гПаясно
26 мая
00:00+18СВ, 4 м/с68%1024 гПаясно
01:00+17СВ, 4 м/с75%1024 гПаясно
02:00+16СВ, 3 м/с82%1023 гПаясно
03:00+15СВ, 2 м/с89%1023 гПаясно
04:00+14СВ, 2 м/с95%1023 гПаясно
05:00+13СВ, 2 м/с97%1023 гПаясно
06:00+13В, 2 м/с98%1023 гПаясно
07:00+13В, 3 м/с98%1023 гПамалооблачно
08:00+14В, 3 м/с94%1024 гПаясно
09:00+15В, 3 м/с82%1024 гПаясно
10:00+18В, 4 м/с70%1024 гПаясно
11:00+20В, 4 м/с63%1024 гПаясно
12:00+21В, 4 м/с56%1024 гПаясно
13:00+22В, 4 м/с53%1023 гПаясно
14:00+24В, 4 м/с50%1023 гПаясно
15:00+25В, 5 м/с47%1022 гПаясно